Time;durP1;ratioP1;P1;durP2;ratioP2;P2;SDS_P1;SDS_P2;PMS_P1;PMS_P2;Temp;Humidity;BMP_temperature;BMP_pressure;BME280_temperature;BME280_humidity;BME280_pressure;Samples;Min_cycle;Max_cycle;Signal;HPM_P1;HPM_P2
2024/02/22 00:01:10;;;;;;;0.52;0.50;;;9.90;99.90;;;;;;5013698;28;20029;-68
2024/02/22 00:03:37;;;;;;;1.15;1.05;;;9.90;99.90;;;;;;5012994;28;20049;-68
2024/02/22 00:06:05;;;;;;;1.48;0.95;;;9.90;99.90;;;;;;5013849;28;20041;-68
2024/02/22 00:08:31;;;;;;;0.75;0.47;;;9.90;99.90;;;;;;4996464;28;20022;-67
2024/02/22 00:10:59;;;;;;;2.70;0.68;;;9.80;99.90;;;;;;4992416;28;20131;-68
2024/02/22 00:13:26;;;;;;;1.33;0.35;;;9.80;99.90;;;;;;5013334;28;20026;-67
2024/02/22 00:15:51;;;;;;;0.77;0.60;;;9.80;99.90;;;;;;5011875;28;20029;-67
2024/02/22 00:18:18;;;;;;;0.32;0.32;;;9.70;99.90;;;;;;5013601;28;20034;-67
2024/02/22 00:20:44;;;;;;;0.43;0.38;;;9.70;99.90;;;;;;5011416;28;20626;-67
2024/02/22 00:23:10;;;;;;;6.40;0.55;;;9.70;99.90;;;;;;5012307;28;20093;-68
2024/02/22 00:25:35;;;;;;;1.23;0.50;;;9.60;99.90;;;;;;4994933;28;20018;-68
2024/02/22 00:28:01;;;;;;;0.85;0.57;;;9.60;99.90;;;;;;5029064;28;20049;-68
2024/02/22 00:30:27;;;;;;;0.77;0.63;;;9.50;99.90;;;;;;5011004;28;20026;-68
2024/02/22 00:32:53;;;;;;;0.50;0.38;;;9.50;99.90;;;;;;5011948;28;20044;-68
2024/02/22 00:35:19;;;;;;;0.75;0.68;;;9.50;99.90;;;;;;5010893;28;20041;-68
2024/02/22 00:37:45;;;;;;;1.30;0.98;;;9.40;99.90;;;;;;5011235;28;20037;-68
2024/02/22 00:40:14;;;;;;;0.98;0.80;;;9.40;99.90;;;;;;5010831;28;20028;-68
2024/02/22 00:42:41;;;;;;;1.30;0.60;;;9.40;99.90;;;;;;5011436;28;20037;-67
2024/02/22 00:45:08;;;;;;;1.70;0.52;;;9.30;99.90;;;;;;5011331;28;20040;-68
2024/02/22 00:47:33;;;;;;;1.55;0.60;;;9.30;99.90;;;;;;5011994;28;20032;-68
2024/02/22 00:49:59;;;;;;;0.85;0.55;;;9.30;99.90;;;;;;5011508;28;20433;-68
2024/02/22 00:52:25;;;;;;;0.55;0.50;;;9.30;99.90;;;;;;5013105;28;20084;-68
2024/02/22 00:54:51;;;;;;;1.92;1.13;;;9.20;99.90;;;;;;5010763;28;20105;-67
2024/02/22 00:57:17;;;;;;;2.17;0.82;;;9.20;99.90;;;;;;5013194;28;20516;-67
2024/02/22 00:59:42;;;;;;;1.15;1.05;;;9.20;99.90;;;;;;4994361;28;20025;-68
2024/02/22 01:02:08;;;;;;;8.52;0.85;;;9.10;99.90;;;;;;5012542;28;20095;-67
2024/02/22 01:04:34;;;;;;;1.50;0.82;;;9.10;99.90;;;;;;5011272;28;20038;-67
2024/02/22 01:07:02;;;;;;;1.55;0.63;;;9.00;99.90;;;;;;5011430;28;20038;-67
2024/02/22 01:09:28;;;;;;;1.35;1.02;;;9.00;99.90;;;;;;5012447;28;20104;-67
2024/02/22 01:11:54;;;;;;;0.98;0.88;;;8.90;99.90;;;;;;5011483;28;20117;-68
2024/02/22 01:14:20;;;;;;;1.08;0.93;;;8.80;99.90;;;;;;4992867;28;20034;-68
2024/02/22 01:16:49;;;;;;;1.83;1.00;;;8.70;99.90;;;;;;5012722;28;20532;-68
2024/02/22 01:19:16;;;;;;;4.47;1.48;;;8.70;99.90;;;;;;5010646;28;20034;-68
2024/02/22 01:21:43;;;;;;;0.63;0.40;;;8.70;99.90;;;;;;5027533;28;20030;-68
2024/02/22 01:24:09;;;;;;;1.80;0.98;;;8.70;99.90;;;;;;5009698;28;20542;-68
2024/02/22 01:26:35;;;;;;;0.95;0.65;;;8.70;99.90;;;;;;5010613;28;20105;-67
2024/02/22 01:29:00;;;;;;;1.75;0.88;;;8.60;99.90;;;;;;5010992;28;20026;-68
2024/02/22 01:31:26;;;;;;;1.35;1.25;;;8.60;99.90;;;;;;5011998;28;20432;-69
2024/02/22 01:33:52;;;;;;;2.55;1.10;;;8.60;99.90;;;;;;5010385;28;20056;-68
2024/02/22 01:36:17;;;;;;;1.85;1.05;;;8.60;99.90;;;;;;4993948;28;20026;-68
2024/02/22 01:38:43;;;;;;;2.63;1.10;;;8.60;99.90;;;;;;5011284;28;20518;-69
2024/02/22 01:41:09;;;;;;;0.98;0.63;;;8.70;99.90;;;;;;5008020;28;20038;-68
2024/02/22 01:43:36;;;;;;;1.17;0.85;;;8.70;99.90;;;;;;5009415;28;20022;-69
2024/02/22 01:46:03;;;;;;;2.00;1.60;;;8.70;99.90;;;;;;4987717;28;20038;-68
2024/02/22 01:48:30;;;;;;;2.22;1.67;;;8.70;99.90;;;;;;5010199;28;20028;-69
2024/02/22 01:50:56;;;;;;;2.90;0.90;;;8.70;99.90;;;;;;5010005;28;20030;-68
2024/02/22 01:53:26;;;;;;;1.27;1.00;;;8.70;99.90;;;;;;4993648;28;20025;-68
2024/02/22 01:55:57;;;;;;;1.63;1.13;;;8.80;99.90;;;;;;5009085;28;20460;-68
2024/02/22 01:58:31;;;;;;;6.15;1.52;;;8.80;99.90;;;;;;5010820;28;20030;-69
2024/02/22 02:00:59;;;;;;;1.40;0.75;;;8.80;99.90;;;;;;4990579;28;20111;-69
2024/02/22 02:03:26;;;;;;;6.50;0.90;;;8.70;99.90;;;;;;5018610;28;20038;-69
2024/02/22 02:05:53;;;;;;;20.85;0.77;;;8.80;99.90;;;;;;5011996;28;21408;-69
2024/02/22 02:08:19;;;;;;;0.45;0.35;;;8.80;99.90;;;;;;5015131;28;20043;-69
2024/02/22 02:10:46;;;;;;;0.85;0.40;;;8.90;99.90;;;;;;5017493;28;20026;-69
2024/02/22 02:13:12;;;;;;;2.03;0.45;;;9.00;99.90;;;;;;5004180;28;20062;-69
2024/02/22 02:15:38;;;;;;;1.40;0.60;;;9.10;99.90;;;;;;5011742;28;20482;-69
2024/02/22 02:18:05;;;;;;;0.52;0.43;;;9.20;99.90;;;;;;5021413;28;20036;-69
2024/02/22 02:21:20;;;;;;;0.60;0.52;;;9.20;99.90;;;;;;5020516;28;20064;-69
2024/02/22 02:24:17;;;;;;;0.75;0.65;;;9.20;99.90;;;;;;5014810;28;20048;-69
2024/02/22 02:26:43;;;;;;;2.30;1.05;;;9.10;99.90;;;;;;5019734;28;20025;-69
2024/02/22 02:29:08;;;;;;;1.38;0.70;;;9.00;99.90;;;;;;5017160;28;20378;-68
2024/02/22 02:31:34;;;;;;;1.70;0.90;;;8.90;99.90;;;;;;5008333;28;20030;-69
2024/02/22 02:34:00;;;;;;;0.82;0.45;;;8.90;99.90;;;;;;5018096;28;20673;-68
2024/02/22 02:36:26;;;;;;;1.75;1.00;;;8.90;99.90;;;;;;5022246;28;20145;-69
2024/02/22 02:38:52;;;;;;;0.70;0.50;;;8.90;99.90;;;;;;5019073;28;20096;-68
2024/02/22 02:41:17;;;;;;;1.30;0.77;;;9.00;99.90;;;;;;5016179;28;20021;-69
2024/02/22 02:43:43;;;;;;;0.60;0.50;;;9.10;99.90;;;;;;5020251;28;20398;-69
2024/02/22 02:46:09;;;;;;;0.10;0.10;;;9.20;99.90;;;;;;5002103;28;20030;-69
2024/02/22 02:48:34;;;;;;;0.82;0.17;;;9.30;99.90;;;;;;5018500;28;20561;-69
2024/02/22 02:51:00;;;;;;;0.38;0.30;;;9.30;99.90;;;;;;5019048;28;20421;-69
2024/02/22 02:53:26;;;;;;;0.40;0.30;;;9.40;99.90;;;;;;5021358;28;20125;-69
2024/02/22 02:55:52;;;;;;;0.47;0.25;;;9.40;99.90;;;;;;5024344;28;20061;-69
2024/02/22 02:58:17;;;;;;;0.40;0.30;;;9.40;99.90;;;;;;5033072;28;20026;-69
2024/02/22 03:00:43;;;;;;;0.32;0.25;;;9.40;99.90;;;;;;5020516;28;20037;-69
2024/02/22 03:03:09;;;;;;;0.40;0.30;;;9.50;99.90;;;;;;5023832;28;20101;-69
2024/02/22 03:05:39;;;;;;;0.55;0.38;;;9.50;99.90;;;;;;5022825;28;20039;-69
2024/02/22 03:08:05;;;;;;;0.52;0.30;;;9.40;99.90;;;;;;5039768;28;20029;-69
2024/02/22 03:10:31;;;;;;;0.60;0.40;;;9.40;99.90;;;;;;5022119;28;20030;-68
2024/02/22 03:12:57;;;;;;;1.58;0.85;;;9.40;99.90;;;;;;5024409;28;20037;-68
2024/02/22 03:15:22;;;;;;;1.95;0.82;;;9.40;99.90;;;;;;5022232;28;20031;-68
2024/02/22 03:17:48;;;;;;;1.92;0.68;;;9.40;99.90;;;;;;5023918;28;20104;-68
2024/02/22 03:20:17;;;;;;;2.10;1.35;;;9.30;99.90;;;;;;5021886;28;20040;-68
2024/02/22 03:22:43;;;;;;;0.95;0.70;;;9.30;99.90;;;;;;5018254;28;20390;-69
2024/02/22 03:25:09;;;;;;;0.82;0.65;;;9.30;99.90;;;;;;5019403;28;20034;-68
2024/02/22 03:27:36;;;;;;;1.38;0.68;;;9.30;99.90;;;;;;5038604;28;20024;-68
2024/02/22 03:30:05;;;;;;;0.75;0.73;;;9.30;99.90;;;;;;5019447;28;20026;-68
2024/02/22 03:32:31;;;;;;;2.50;1.25;;;9.20;99.90;;;;;;5019670;28;20030;-69
2024/02/22 03:34:58;;;;;;;2.70;1.30;;;9.20;99.90;;;;;;5022805;28;20034;-69
2024/02/22 03:37:24;;;;;;;1.63;0.90;;;9.20;99.90;;;;;;5021718;28;20018;-68
2024/02/22 03:39:49;;;;;;;0.75;0.75;;;9.10;99.90;;;;;;5023876;28;20067;-68
2024/02/22 03:42:19;;;;;;;1.67;1.00;;;9.20;99.90;;;;;;5020316;28;20060;-68
2024/02/22 03:44:45;;;;;;;0.57;0.30;;;9.20;99.90;;;;;;5018889;28;20397;-69
2024/02/22 03:47:11;;;;;;;1.25;0.85;;;9.10;99.90;;;;;;5022704;28;20022;-68
2024/02/22 03:49:37;;;;;;;2.10;1.20;;;9.10;99.90;;;;;;5021035;28;20033;-69
2024/02/22 03:52:04;;;;;;;1.80;1.23;;;9.10;99.90;;;;;;5021583;28;20025;-68
2024/02/22 03:54:36;;;;;;;2.90;1.25;;;9.10;99.90;;;;;;5019736;28;20041;-68
2024/02/22 03:57:02;;;;;;;;;;;9.10;99.90;;;;;;5022164;28;20159;-68
2024/02/22 03:59:28;;;;;;;3.40;1.00;;;9.10;99.90;;;;;;5020526;28;19917;-68
2024/02/22 04:01:53;;;;;;;1.83;0.88;;;9.10;99.90;;;;;;5009946;28;20568;-68
2024/02/22 04:04:19;;;;;;;2.50;1.10;;;9.10;99.90;;;;;;5009997;28;20421;-68
2024/02/22 04:06:45;;;;;;;1.88;1.05;;;9.10;99.90;;;;;;5017167;28;20474;-68
2024/02/22 04:09:10;;;;;;;2.25;0.73;;;9.10;99.90;;;;;;5022711;28;20034;-68
2024/02/22 04:11:36;;;;;;;1.05;0.88;;;9.10;99.90;;;;;;5022406;28;20022;-68
2024/02/22 04:14:02;;;;;;;1.27;0.50;;;9.10;99.90;;;;;;5021205;28;20045;-69
2024/02/22 04:16:28;;;;;;;1.77;0.80;;;9.10;99.90;;;;;;5019228;28;20148;-68
2024/02/22 04:18:53;;;;;;;1.75;1.30;;;9.10;99.90;;;;;;5023506;28;20029;-69
2024/02/22 04:21:19;;;;;;;1.02;0.93;;;9.10;99.90;;;;;;5023092;28;20025;-69
2024/02/22 04:23:45;;;;;;;0.35;0.32;;;9.10;99.90;;;;;;5018679;28;20033;-69
2024/02/22 04:26:11;;;;;;;1.17;0.85;;;9.10;99.90;;;;;;5021429;28;20126;-69
2024/02/22 04:28:37;;;;;;;0.88;0.60;;;9.10;99.90;;;;;;5021731;28;20724;-68
2024/02/22 04:31:04;;;;;;;1.15;0.70;;;9.10;99.90;;;;;;5020749;28;20032;-68
2024/02/22 04:33:32;;;;;;;1.50;1.00;;;9.10;99.90;;;;;;5018661;28;20029;-69
2024/02/22 04:35:59;;;;;;;0.65;0.35;;;9.10;99.90;;;;;;5025273;28;20033;-69
2024/02/22 04:38:24;;;;;;;0.85;0.60;;;9.20;99.90;;;;;;5016962;28;20120;-69
2024/02/22 04:40:51;;;;;;;0.38;0.35;;;9.20;99.90;;;;;;5022332;28;20550;-69
2024/02/22 04:43:17;;;;;;;0.95;0.45;;;9.10;99.90;;;;;;5017866;28;20092;-69
2024/02/22 04:45:43;;;;;;;0.52;0.50;;;9.20;99.90;;;;;;5021398;28;20025;-68
2024/02/22 04:48:09;;;;;;;1.15;1.05;;;9.20;99.90;;;;;;5005518;28;20389;-69
2024/02/22 04:50:35;;;;;;;0.82;0.63;;;9.20;99.90;;;;;;5022267;28;20034;-69
2024/02/22 04:53:05;;;;;;;1.02;0.63;;;9.20;99.90;;;;;;5021251;28;20160;-69
2024/02/22 04:55:34;;;;;;;1.02;0.73;;;9.20;99.90;;;;;;5019635;28;20386;-68
2024/02/22 04:58:04;;;;;;;0.88;0.57;;;9.20;99.90;;;;;;5017355;28;20074;-68
2024/02/22 05:00:31;;;;;;;0.82;0.43;;;9.20;99.90;;;;;;5020489;28;20025;-69
2024/02/22 05:02:56;;;;;;;0.65;0.38;;;9.20;99.90;;;;;;5018557;28;20053;-69
2024/02/22 05:05:22;;;;;;;1.25;0.73;;;9.20;99.90;;;;;;5019333;28;20017;-69
2024/02/22 05:07:48;;;;;;;1.00;0.50;;;9.20;99.90;;;;;;5023118;28;20057;-69
2024/02/22 05:10:15;;;;;;;0.35;0.35;;;9.20;99.90;;;;;;5022606;28;20064;-68
2024/02/22 05:12:41;;;;;;;1.85;0.75;;;9.20;99.90;;;;;;5002915;28;20033;-69
2024/02/22 05:15:10;;;;;;;0.57;0.40;;;9.20;99.90;;;;;;5017373;28;20033;-70
2024/02/22 05:17:39;;;;;;;0.25;0.25;;;9.20;99.90;;;;;;5019330;28;20034;-69
2024/02/22 05:20:06;;;;;;;1.38;0.95;;;9.20;99.90;;;;;;5018425;28;20387;-69
2024/02/22 05:22:32;;;;;;;10.68;0.75;;;9.30;99.90;;;;;;5014843;28;20092;-69
2024/02/22 05:24:58;;;;;;;3.13;1.98;;;9.20;99.90;;;;;;5020079;28;20469;-68
2024/02/22 05:27:24;;;;;;;0.98;0.80;;;9.30;99.90;;;;;;5018301;28;20033;-69
2024/02/22 05:29:49;;;;;;;0.98;0.75;;;9.30;99.90;;;;;;5021322;28;20464;-69
2024/02/22 05:32:15;;;;;;;1.52;1.00;;;9.20;99.90;;;;;;5016851;28;20025;-69
2024/02/22 05:34:41;;;;;;;2.20;1.02;;;9.20;99.90;;;;;;5022758;28;20628;-69
2024/02/22 05:37:09;;;;;;;1.15;0.77;;;9.30;99.90;;;;;;5012831;28;20051;-71
2024/02/22 05:39:35;;;;;;;0.45;0.45;;;9.20;99.90;;;;;;4990539;28;20034;-69
2024/02/22 05:42:02;;;;;;;1.48;0.57;;;9.30;99.90;;;;;;5027750;28;20121;-70
2024/02/22 05:44:29;;;;;;;1.77;0.80;;;9.30;99.90;;;;;;5016917;28;20030;-71
2024/02/22 05:46:55;;;;;;;4.20;0.60;;;9.30;99.90;;;;;;5022746;28;20037;-70
2024/02/22 05:49:21;;;;;;;0.95;0.63;;;9.20;99.90;;;;;;5002638;28;20030;-72
2024/02/22 05:51:46;;;;;;;0.52;0.50;;;9.30;99.90;;;;;;5015580;28;20040;-73
2024/02/22 05:54:12;;;;;;;1.17;0.77;;;9.20;99.90;;;;;;5019868;28;20026;-73
2024/02/22 05:56:38;;;;;;;1.35;0.32;;;9.20;99.90;;;;;;5021576;28;20494;-70
2024/02/22 05:59:04;;;;;;;1.85;1.25;;;9.30;99.90;;;;;;5020172;28;20038;-71
2024/02/22 06:01:29;;;;;;;0.77;0.73;;;9.20;99.90;;;;;;5017984;28;20075;-71
2024/02/22 06:03:55;;;;;;;0.85;0.52;;;9.30;99.90;;;;;;5012972;28;20033;-71
2024/02/22 06:06:21;;;;;;;0.55;0.25;;;9.30;99.90;;;;;;5011164;28;20030;-71
2024/02/22 06:08:47;;;;;;;0.40;0.40;;;9.30;99.90;;;;;;4989220;28;20034;-71
2024/02/22 06:11:15;;;;;;;0.50;0.40;;;9.30;99.90;;;;;;5011670;28;20030;-70
2024/02/22 06:13:41;;;;;;;0.65;0.47;;;9.30;99.90;;;;;;5003415;28;20204;-69
2024/02/22 06:16:07;;;;;;;1.02;0.88;;;9.30;99.90;;;;;;5010329;28;20172;-69
2024/02/22 06:18:33;;;;;;;3.47;0.55;;;9.30;99.90;;;;;;5009389;28;20379;-68
2024/02/22 06:20:59;;;;;;;0.65;0.50;;;9.30;99.90;;;;;;5016968;28;20125;-69
2024/02/22 06:23:25;;;;;;;1.23;0.50;;;9.30;99.90;;;;;;5008832;28;20041;-68
2024/02/22 06:25:51;;;;;;;0.32;0.32;;;9.30;99.90;;;;;;5018874;28;20018;-68
2024/02/22 06:28:17;;;;;;;1.80;0.95;;;9.30;99.90;;;;;;5010450;28;20026;-69
2024/02/22 06:30:42;;;;;;;0.68;0.57;;;9.30;99.90;;;;;;5011042;28;20385;-68
2024/02/22 06:33:08;;;;;;;0.50;0.40;;;9.30;99.90;;;;;;5009990;28;20030;-69
2024/02/22 06:35:35;;;;;;;0.45;0.20;;;9.30;99.90;;;;;;5010734;28;20466;-69
2024/02/22 06:38:00;;;;;;;0.55;0.50;;;9.30;99.90;;;;;;5014903;28;20030;-69
2024/02/22 06:40:26;;;;;;;1.08;0.60;;;9.30;99.90;;;;;;5013234;28;20041;-69
2024/02/22 06:42:52;;;;;;;0.20;0.20;;;9.30;99.90;;;;;;5015432;28;20360;-69
2024/02/22 06:45:22;;;;;;;1.92;0.60;;;9.30;99.90;;;;;;5013015;28;20164;-68
2024/02/22 06:47:48;;;;;;;1.20;0.77;;;9.30;99.90;;;;;;5015506;28;20022;-69
2024/02/22 06:50:14;;;;;;;0.38;0.28;;;9.30;99.90;;;;;;5014531;28;20059;-68
2024/02/22 06:52:39;;;;;;;1.35;0.77;;;9.30;99.90;;;;;;5013821;28;20033;-69
2024/02/22 06:55:07;;;;;;;2.67;1.27;;;9.30;99.90;;;;;;5021439;28;20032;-70
2024/02/22 06:57:33;;;;;;;1.05;0.80;;;9.40;99.90;;;;;;5007341;28;20041;-68
2024/02/22 06:59:58;;;;;;;1.10;0.65;;;9.40;99.90;;;;;;5014096;28;20026;-68
2024/02/22 07:02:24;;;;;;;0.95;0.70;;;9.30;99.90;;;;;;4997263;28;20037;-69
2024/02/22 07:04:50;;;;;;;0.38;0.30;;;9.40;99.90;;;;;;5013368;28;20670;-69
2024/02/22 07:07:16;;;;;;;0.70;0.50;;;9.40;99.90;;;;;;5014093;28;20042;-69
2024/02/22 07:09:42;;;;;;;1.85;0.90;;;9.40;99.90;;;;;;5014804;28;20045;-71
2024/02/22 07:12:08;;;;;;;0.63;0.52;;;9.40;99.90;;;;;;5014809;28;20034;-55
2024/02/22 07:14:34;;;;;;;4.70;0.88;;;9.40;99.90;;;;;;5010107;28;20026;-48
2024/02/22 07:17:00;;;;;;;0.68;0.43;;;9.40;99.90;;;;;;5014942;28;20041;-50
2024/02/22 07:19:27;;;;;;;1.23;0.45;;;9.40;99.90;;;;;;5014408;28;20097;-54
2024/02/22 07:21:52;;;;;;;2.88;0.55;;;9.50;99.90;;;;;;5014119;28;20048;-49
2024/02/22 07:24:18;;;;;;;0.93;0.43;;;9.50;99.90;;;;;;5014545;28;20466;-52
2024/02/22 07:26:46;;;;;;;1.42;0.75;;;9.50;99.90;;;;;;5012006;28;20393;-57
2024/02/22 07:29:11;;;;;;;0.30;0.30;;;9.50;99.90;;;;;;5016111;28;20112;-68
2024/02/22 07:31:37;;;;;;;1.70;0.57;;;9.50;99.90;;;;;;4992955;28;20133;-68
2024/02/22 07:34:03;;;;;;;0.73;0.63;;;9.50;99.90;;;;;;5011638;28;20081;-67
2024/02/22 07:36:29;;;;;;;0.75;0.65;;;9.50;99.90;;;;;;5007848;28;20026;-68
2024/02/22 07:38:54;;;;;;;0.70;0.55;;;9.50;99.90;;;;;;5027958;28;20464;-68
2024/02/22 07:41:21;;;;;;;1.25;0.68;;;9.60;99.90;;;;;;5012848;28;20030;-68
2024/02/22 07:43:47;;;;;;;2.63;1.10;;;9.60;99.90;;;;;;5016619;28;20379;-68
2024/02/22 07:46:14;;;;;;;0.73;0.73;;;9.60;99.90;;;;;;5011298;28;20030;-68
2024/02/22 07:48:43;;;;;;;2.00;0.75;;;9.60;99.90;;;;;;5013630;28;20014;-67
2024/02/22 07:51:10;;;;;;;1.38;0.52;;;9.60;99.90;;;;;;4991234;28;20339;-67
2024/02/22 07:53:37;;;;;;;6.53;1.17;;;9.60;99.90;;;;;;5012036;28;20099;-67
2024/02/22 07:56:07;;;;;;;2.13;0.73;;;9.60;99.90;;;;;;5011329;28;20037;-67
2024/02/22 07:58:54;;;;;;;0.50;0.40;;;9.70;99.90;;;;;;5011203;28;20065;-67
2024/02/22 08:01:20;;;;;;;5.57;0.73;;;9.70;99.90;;;;;;5010750;28;20026;-67
2024/02/22 08:03:47;;;;;;;2.60;0.90;;;9.70;99.90;;;;;;5012036;28;20018;-68
2024/02/22 08:06:13;;;;;;;11.45;0.93;;;9.70;99.90;;;;;;5014424;28;20030;-69
2024/02/22 08:08:39;;;;;;;0.43;0.43;;;9.80;99.90;;;;;;5011262;28;20037;-67
2024/02/22 08:11:06;;;;;;;1.77;0.75;;;9.80;99.90;;;;;;5013041;28;20113;-68
2024/02/22 08:13:32;;;;;;;0.30;0.28;;;9.80;99.90;;;;;;5012816;28;20021;-67
2024/02/22 08:16:08;;;;;;;1.25;0.55;;;9.80;99.90;;;;;;5011944;28;20630;-71
2024/02/22 08:18:40;;;;;;;0.43;0.22;;;9.80;99.90;;;;;;5009938;28;20076;-68
2024/02/22 08:21:07;;;;;;;1.20;0.40;;;9.80;99.90;;;;;;5012319;28;20029;-67
2024/02/22 08:23:33;;;;;;;0.82;0.63;;;9.90;99.90;;;;;;5010980;28;20030;-68
2024/02/22 08:25:59;;;;;;;0.77;0.50;;;9.90;99.90;;;;;;5013621;28;20030;-67
2024/02/22 08:28:27;;;;;;;1.10;0.45;;;9.90;99.90;;;;;;5011298;28;20029;-66
2024/02/22 08:30:53;;;;;;;0.08;0.08;;;9.90;99.90;;;;;;5012151;28;20034;-66
2024/02/22 08:33:23;;;;;;;0.95;0.57;;;9.90;99.90;;;;;;5014523;28;20038;-67
2024/02/22 08:35:48;;;;;;;0.10;0.10;;;10.00;99.90;;;;;;4994562;28;20100;-68
2024/02/22 08:38:14;;;;;;;1.75;0.90;;;10.10;99.90;;;;;;5010099;28;20491;-68
2024/02/22 08:40:40;;;;;;;1.48;0.60;;;10.00;99.90;;;;;;5012244;28;20036;-68
2024/02/22 08:43:08;;;;;;;0.52;0.32;;;10.10;99.90;;;;;;5012763;28;20621;-68
2024/02/22 08:45:34;;;;;;;0.45;0.32;;;10.00;99.90;;;;;;5012749;28;20037;-68
2024/02/22 08:48:00;;;;;;;0.80;0.60;;;10.00;99.90;;;;;;5013124;28;20029;-68
2024/02/22 08:50:26;;;;;;;0.20;0.20;;;10.10;99.90;;;;;;5011828;28;20034;-67
2024/02/22 08:52:52;;;;;;;0.45;0.40;;;10.10;99.90;;;;;;5012622;28;20065;-67
2024/02/22 08:55:17;;;;;;;0.55;0.30;;;10.10;99.90;;;;;;5011392;28;20146;-68
2024/02/22 08:57:43;;;;;;;0.65;0.52;;;10.10;99.90;;;;;;5010598;28;20026;-67
2024/02/22 09:00:12;;;;;;;0.20;0.20;;;10.10;99.90;;;;;;5020739;28;20038;-68
2024/02/22 09:02:39;;;;;;;1.10;0.30;;;10.10;99.90;;;;;;5010344;28;20030;-68
2024/02/22 09:05:10;;;;;;;0.85;0.45;;;10.10;99.90;;;;;;5010286;28;20061;-67
2024/02/22 09:07:36;;;;;;;0.47;0.40;;;10.10;99.90;;;;;;5008258;28;20029;-67
2024/02/22 09:10:09;;;;;;;0.22;0.22;;;10.20;99.90;;;;;;5011328;28;20046;-67
2024/02/22 09:12:40;;;;;;;0.20;0.20;;;10.20;99.90;;;;;;5009445;28;20025;-67
2024/02/22 09:15:08;;;;;;;0.10;0.10;;;10.20;99.90;;;;;;5013667;28;20041;-67
2024/02/22 09:17:34;;;;;;;0.28;0.25;;;10.20;99.90;;;;;;5011530;28;20038;-67
2024/02/22 09:20:08;;;;;;;0.17;0.17;;;10.30;99.90;;;;;;5101898;27;20416;-66
2024/02/22 09:22:34;;;;;;;0.57;0.10;;;10.30;99.90;;;;;;5105097;28;20123;-66
2024/02/22 09:25:00;;;;;;;0.35;0.30;;;10.30;99.90;;;;;;5108599;28;20032;-66
2024/02/22 09:27:25;;;;;;;0.43;0.30;;;10.30;99.90;;;;;;5107531;28;20031;-66
2024/02/22 09:29:53;;;;;;;0.30;0.30;;;10.40;99.90;;;;;;5108414;28;20042;-68
2024/02/22 09:32:22;;;;;;;0.90;0.47;;;10.40;99.90;;;;;;5101184;28;20039;-67
2024/02/22 09:34:47;;;;;;;0.10;0.10;;;10.40;99.90;;;;;;5105543;28;20078;-67
2024/02/22 09:37:13;;;;;;;0.20;0.20;;;10.50;99.90;;;;;;5100488;28;20481;-67
2024/02/22 09:39:39;;;;;;;2.42;0.50;;;10.40;99.90;;;;;;5104084;28;20028;-67
2024/02/22 09:42:05;;;;;;;1.35;0.50;;;10.40;99.90;;;;;;5096171;28;20028;-67
2024/02/22 09:44:32;;;;;;;0.47;0.28;;;10.50;99.90;;;;;;5106218;28;20020;-67
2024/02/22 09:46:58;;;;;;;0.35;0.20;;;10.50;99.90;;;;;;5102193;28;20063;-67
2024/02/22 09:49:24;;;;;;;0.38;0.38;;;10.50;99.90;;;;;;5100238;28;20057;-67
2024/02/22 09:51:54;;;;;;;1.63;0.75;;;10.50;99.90;;;;;;5102178;28;20032;-65
2024/02/22 09:54:21;;;;;;;0.70;0.40;;;10.50;99.90;;;;;;5099713;28;20032;-65
2024/02/22 09:56:50;;;;;;;1.35;0.13;;;10.50;99.90;;;;;;5098639;28;20023;-65
2024/02/22 09:59:18;;;;;;;0.40;0.40;;;10.60;99.90;;;;;;5104403;28;20866;-65
2024/02/22 10:01:46;;;;;;;1.35;0.38;;;10.60;99.90;;;;;;5106106;28;20047;-66
2024/02/22 10:04:19;;;;;;;0.32;0.30;;;10.60;99.90;;;;;;5097861;28;20362;-67
2024/02/22 10:07:04;;;;;;;0.20;0.20;;;10.60;99.90;;;;;;5105491;28;20499;-67
2024/02/22 10:09:29;;;;;;;0.28;0.20;;;10.70;99.90;;;;;;5104920;28;20650;-67
2024/02/22 10:11:55;;;;;;;0.47;0.38;;;10.60;99.90;;;;;;5104239;28;20039;-67
2024/02/22 10:14:21;;;;;;;0.10;0.10;;;10.70;99.90;;;;;;5099179;28;20112;-68
2024/02/22 10:16:47;;;;;;;0.30;0.28;;;10.70;99.90;;;;;;5102580;28;20026;-68
2024/02/22 10:19:15;;;;;;;0.10;0.10;;;10.70;99.90;;;;;;5099237;28;20028;-68
2024/02/22 10:21:41;;;;;;;0.20;0.10;;;10.70;99.90;;;;;;5100310;28;20032;-68
2024/02/22 10:24:08;;;;;;;0.10;0.10;;;10.60;99.90;;;;;;5097645;28;20052;-68
2024/02/22 10:26:34;;;;;;;0.10;0.10;;;10.70;99.90;;;;;;5101754;28;20020;-68
2024/02/22 10:29:10;;;;;;;0.30;0.30;;;10.70;99.90;;;;;;5099302;28;20376;-68
2024/02/22 10:31:48;;;;;;;0.40;0.30;;;10.70;99.90;;;;;;5079782;28;20032;-68
2024/02/22 10:34:14;;;;;;;0.38;0.20;;;10.70;99.90;;;;;;5083752;28;20043;-68
2024/02/22 10:36:42;;;;;;;2.28;0.22;;;10.70;99.90;;;;;;5087289;28;20024;-68
2024/02/22 10:39:13;;;;;;;0.35;0.30;;;10.80;99.90;;;;;;5086427;28;20098;-68
2024/02/22 10:41:39;;;;;;;1.27;0.20;;;10.80;99.90;;;;;;5084745;28;20039;-68
2024/02/22 10:44:06;;;;;;;0.73;0.30;;;10.80;99.90;;;;;;5083072;28;20124;-68
2024/02/22 10:46:37;;;;;;;0.35;0.20;;;10.80;99.90;;;;;;5087212;28;20032;-68
2024/02/22 10:49:08;;;;;;;6.05;0.65;;;10.80;99.90;;;;;;5082982;28;20024;-68
2024/02/22 10:51:34;;;;;;;0.20;0.15;;;10.90;99.90;;;;;;5092114;28;20039;-68
2024/02/22 10:54:05;;;;;;;0.10;0.10;;;10.90;99.90;;;;;;5081632;28;20085;-67
2024/02/22 10:56:33;;;;;;;0.50;0.40;;;10.90;99.90;;;;;;5090704;28;20031;-67
2024/02/22 10:59:04;;;;;;;0.52;0.22;;;10.90;99.90;;;;;;5087187;28;20036;-67
2024/02/22 11:01:34;;;;;;;0.45;0.45;;;10.90;99.90;;;;;;5090744;28;20028;-67
2024/02/22 11:04:02;;;;;;;0.23;0.23;;;10.90;99.90;;;;;;5088455;28;20042;-67
2024/02/22 11:06:28;;;;;;;0.40;0.35;;;10.90;99.90;;;;;;5090627;28;20036;-68
2024/02/22 11:09:01;;;;;;;0.43;0.20;;;10.90;99.90;;;;;;5088432;28;20024;-68
2024/02/22 11:11:30;;;;;;;0.17;0.17;;;10.90;99.90;;;;;;5087029;28;20388;-68
2024/02/22 11:14:01;;;;;;;0.00;0.00;;;11.00;99.90;;;;;;5088937;28;20111;-68
2024/02/22 11:16:40;;;;;;;0.10;0.10;;;11.00;99.90;;;;;;5085606;28;20041;-68
2024/02/22 11:19:16;;;;;;;0.10;0.10;;;11.00;99.90;;;;;;5072899;28;20032;-68
2024/02/22 11:21:45;;;;;;;0.13;0.10;;;11.00;99.90;;;;;;5072765;28;20040;-68
2024/02/22 11:24:13;;;;;;;0.00;0.00;;;11.00;99.90;;;;;;5069391;28;20024;-67
2024/02/22 11:26:40;;;;;;;0.57;0.30;;;11.00;99.90;;;;;;5059721;28;20020;-67
2024/02/22 11:29:06;;;;;;;0.22;0.20;;;11.00;99.90;;;;;;5073804;28;20041;-67
2024/02/22 11:31:35;;;;;;;0.20;0.00;;;11.00;99.90;;;;;;5086288;28;20039;-68
2024/02/22 11:34:01;;;;;;;1.30;0.30;;;11.00;99.90;;;;;;5083455;28;20086;-68
2024/02/22 11:36:30;;;;;;;0.32;0.30;;;11.00;99.90;;;;;;5085634;28;20392;-68
2024/02/22 11:39:06;;;;;;;0.55;0.38;;;11.00;99.90;;;;;;5081879;28;20049;-68
2024/02/22 11:41:32;;;;;;;0.20;0.20;;;11.00;99.90;;;;;;5086482;28;20028;-68
2024/02/22 11:44:07;;;;;;;0.43;0.20;;;11.10;99.90;;;;;;5076681;28;20025;-67
2024/02/22 11:46:38;;;;;;;2.60;0.35;;;11.10;99.90;;;;;;5083240;28;20062;-68
2024/02/22 11:49:06;;;;;;;0.10;0.10;;;11.10;99.90;;;;;;5081049;28;20127;-67
2024/02/22 11:51:32;;;;;;;0.38;0.20;;;11.10;99.90;;;;;;5089409;28;20028;-67
2024/02/22 11:53:58;;;;;;;0.30;0.30;;;11.20;99.90;;;;;;5085149;28;20050;-68
2024/02/22 11:56:25;;;;;;;0.00;0.00;;;11.20;99.90;;;;;;5089982;28;20024;-67
2024/02/22 11:58:55;;;;;;;0.60;0.17;;;11.20;99.90;;;;;;5078379;28;20142;-68
2024/02/22 12:01:21;;;;;;;0.17;0.13;;;11.20;99.90;;;;;;5084462;28;20415;-68
2024/02/22 12:03:48;;;;;;;0.35;0.35;;;11.20;99.90;;;;;;5083709;28;20022;-69
2024/02/22 12:06:14;;;;;;;0.28;0.13;;;11.30;99.90;;;;;;5084036;28;20024;-69
2024/02/22 12:08:45;;;;;;;0.00;0.00;;;11.30;99.90;;;;;;5070132;28;20433;-68
2024/02/22 12:11:14;;;;;;;0.20;0.20;;;11.30;99.90;;;;;;5086001;28;20056;-69
2024/02/22 12:13:40;;;;;;;0.00;0.00;;;11.40;99.90;;;;;;5082704;28;20040;-67
2024/02/22 12:16:10;;;;;;;0.63;0.28;;;11.40;99.90;;;;;;5083219;28;20425;-67
2024/02/22 12:18:39;;;;;;;0.40;0.20;;;11.40;99.90;;;;;;5075895;28;20035;-66
2024/02/22 12:21:11;;;;;;;0.10;0.05;;;11.40;99.90;;;;;;5082363;28;20500;-65
2024/02/22 12:23:37;;;;;;;1.20;0.38;;;11.50;99.90;;;;;;5081318;28;20099;-67
2024/02/22 12:26:09;;;;;;;0.82;0.30;;;11.50;99.90;;;;;;5087300;28;20135;-65
2024/02/22 12:28:35;;;;;;;0.35;0.20;;;11.50;99.90;;;;;;5080289;28;20032;-66
2024/02/22 12:31:06;;;;;;;1.75;0.93;;;11.50;99.90;;;;;;5081207;28;20036;-66
2024/02/22 12:33:33;;;;;;;0.13;0.13;;;11.50;99.90;;;;;;5078774;28;20511;-66
2024/02/22 12:36:03;;;;;;;0.10;0.10;;;11.60;99.90;;;;;;5078259;28;20748;-66
2024/02/22 12:38:29;;;;;;;0.00;0.00;;;11.60;99.90;;;;;;5086900;28;20077;-67
2024/02/22 12:40:56;;;;;;;0.08;0.00;;;11.60;99.90;;;;;;5073232;28;20025;-67
2024/02/22 12:43:21;;;;;;;0.95;0.32;;;11.60;99.90;;;;;;5088269;28;20028;-67
2024/02/22 12:45:48;;;;;;;0.38;0.13;;;11.60;99.90;;;;;;5080765;28;20046;-67
2024/02/22 12:48:15;;;;;;;3.20;0.47;;;11.60;99.90;;;;;;5087694;28;20032;-66
2024/02/22 12:50:41;;;;;;;0.00;0.00;;;11.60;99.90;;;;;;5065448;28;20027;-66
2024/02/22 12:53:16;;;;;;;0.30;0.30;;;11.60;99.90;;;;;;5086917;28;20028;-67